Time;durP1;ratioP1;P1;durP2;ratioP2;P2;SDS_P1;SDS_P2;PMS_P1;PMS_P2;Temp;Humidity;BMP_temperature;BMP_pressure;BME280_temperature;BME280_humidity;BME280_pressure;Samples;Min_cycle;Max_cycle;Signal;HPM_P1;HPM_P2
2022/10/23 00:01:36;;;;;;;10.00;3.70;;;;;;;16.51;61.20;97546.47;5043392;28;20187;-73
2022/10/23 00:04:12;;;;;;;11.03;4.00;;;;;;;16.48;61.37;97541.56;5041116;28;20454;-72
2022/10/23 00:06:37;;;;;;;6.77;3.77;;;;;;;16.52;61.33;97538.38;5041769;28;20425;-72
2022/10/23 00:09:05;;;;;;;8.37;4.37;;;;;;;16.53;61.28;97528.59;5040713;28;20473;-72
2022/10/23 00:11:30;;;;;;;4.80;3.23;;;;;;;16.54;61.82;97530.25;5043568;28;20653;-72
2022/10/23 00:13:58;;;;;;;4.80;3.00;;;;;;;16.57;62.90;97516.66;5037307;28;20458;-73
2022/10/23 00:16:24;;;;;;;9.87;3.83;;;;;;;16.58;62.80;97518.28;5039561;28;20195;-72
2022/10/23 00:18:50;;;;;;;6.37;3.20;;;;;;;16.57;62.23;97516.66;5040706;28;20952;-72
2022/10/23 00:21:16;;;;;;;10.47;3.20;;;;;;;16.50;61.94;97510.47;5047460;28;20436;-72
2022/10/23 00:23:42;;;;;;;8.83;3.67;;;;;;;16.49;61.70;97520.22;5044798;28;20212;-72
2022/10/23 00:26:10;;;;;;;7.43;3.80;;;;;;;16.41;61.53;97520.31;5039462;28;20421;-71
2022/10/23 00:28:36;;;;;;;4.90;3.30;;;;;;;16.39;61.01;97530.25;5047359;28;20529;-72
2022/10/23 00:31:03;;;;;;;10.80;3.47;;;;;;;16.30;60.97;97531.34;5035134;28;20443;-74
2022/10/23 00:33:28;;;;;;;11.30;3.60;;;;;;;16.29;61.01;97530.50;5047871;28;20551;-70
2022/10/23 00:35:53;;;;;;;7.53;2.80;;;;;;;16.30;61.19;97534.78;5037962;28;20925;-70
2022/10/23 00:38:19;;;;;;;3.40;2.63;;;;;;;16.26;61.98;97530.84;5045938;28;20283;-71
2022/10/23 00:40:45;;;;;;;4.43;3.00;;;;;;;16.26;61.91;97528.22;5046509;28;20340;-72
2022/10/23 00:43:19;;;;;;;3.33;2.97;;;;;;;16.25;61.89;97529.25;5052001;28;20230;-72
2022/10/23 00:45:45;;;;;;;4.00;2.90;;;;;;;16.27;61.49;97529.84;5042128;28;20963;-71
2022/10/23 00:48:10;;;;;;;6.70;2.60;;;;;;;16.28;61.59;97523.56;5033688;28;20785;-72
2022/10/23 00:50:36;;;;;;;11.80;3.23;;;;;;;16.32;62.23;97524.06;5046326;28;20452;-72
2022/10/23 00:53:02;;;;;;;5.20;2.80;;;;;;;16.27;62.21;97520.13;5011460;28;20253;-72
2022/10/23 00:55:29;;;;;;;3.80;2.60;;;;;;;16.24;62.03;97514.38;5029965;28;20187;-73
2022/10/23 00:57:55;;;;;;;3.10;2.63;;;;;;;16.24;61.81;97512.53;5036683;28;20418;-72
2022/10/23 01:00:24;;;;;;;4.33;2.50;;;;;;;16.28;61.86;97518.28;5013221;28;20446;-72
2022/10/23 01:02:49;;;;;;;5.50;2.90;;;;;;;16.29;61.97;97517.28;5041036;28;20797;-72
2022/10/23 01:05:15;;;;;;;8.80;2.43;;;;;;;16.32;61.82;97519.56;5045642;28;20422;-72
2022/10/23 01:07:55;;;;;;;6.47;2.63;;;;;;;16.33;62.14;97518.56;5043891;28;20261;-71
2022/10/23 01:10:41;;;;;;;8.77;3.17;;;;;;;16.36;62.11;97520.84;5041716;28;20207;-72
2022/10/23 01:13:24;;;;;;;4.60;3.10;;;;;;;16.35;61.86;97508.63;5038457;28;20803;-72
2022/10/23 01:16:03;;;;;;;4.97;2.60;;;;;;;16.34;61.68;97512.28;5045175;28;20432;-72
2022/10/23 01:18:43;;;;;;;5.97;3.20;;;;;;;16.31;61.39;97511.81;5038787;28;20429;-72
2022/10/23 01:21:13;;;;;;;3.20;2.90;;;;;;;16.24;61.45;97515.19;5038126;28;20471;-73
2022/10/23 01:24:09;;;;;;;6.13;2.47;;;;;;;16.18;61.73;97502.69;5040889;28;22208;-73
2022/10/23 01:27:19;;;;;;;5.67;2.70;;;;;;;16.22;61.78;97501.31;5036404;28;20981;-73
2022/10/23 01:29:58;;;;;;;6.20;2.73;;;;;;;16.23;62.08;97489.72;5040342;28;20448;-72
2022/10/23 01:32:35;;;;;;;3.97;2.87;;;;;;;16.18;61.90;97486.81;5039378;28;20525;-72
2022/10/23 01:35:06;;;;;;;19.23;2.90;;;;;;;16.18;61.93;97493.94;5043068;28;20432;-74
2022/10/23 01:37:39;;;;;;;4.90;2.23;;;;;;;16.12;61.98;97493.66;5040633;28;20425;-71
2022/10/23 01:40:11;;;;;;;4.03;2.33;;;;;;;16.10;62.32;97486.91;5042472;28;20439;-70
2022/10/23 01:42:40;;;;;;;10.97;2.77;;;;;;;16.17;62.99;97482.53;5039109;28;20421;-71
2022/10/23 01:45:09;;;;;;;7.67;2.03;;;;;;;16.21;63.11;97477.72;5042229;28;20552;-71
2022/10/23 01:47:35;;;;;;;3.00;1.93;;;;;;;16.09;64.31;97482.59;5029144;28;20880;-71
2022/10/23 01:50:03;;;;;;;4.03;2.30;;;;;;;16.19;64.49;97479.72;5042967;28;20821;-72
2022/10/23 01:52:29;;;;;;;4.30;1.97;;;;;;;16.19;64.60;97483.16;5047140;28;20437;-72
2022/10/23 01:54:57;;;;;;;8.40;2.00;;;;;;;16.22;64.33;97474.06;5045016;28;20423;-71
2022/10/23 01:57:24;;;;;;;4.53;2.37;;;;;;;16.27;64.36;97475.16;5045327;28;20190;-71
2022/10/23 01:59:57;;;;;;;5.10;2.73;;;;;;;16.32;64.20;97466.66;5040743;28;20454;-71
2022/10/23 02:02:23;;;;;;;5.87;2.30;;;;;;;16.33;64.02;97473.59;5058466;28;20524;-72
2022/10/23 02:05:12;;;;;;;4.73;2.20;;;;;;;16.39;64.22;97477.34;5040705;28;20569;-71
2022/10/23 02:07:37;;;;;;;3.90;2.30;;;;;;;16.43;63.28;97468.84;5045275;28;20434;-70
2022/10/23 02:10:04;;;;;;;5.20;2.10;;;;;;;16.44;63.23;97464.41;5043873;28;20532;-71
2022/10/23 02:12:48;;;;;;;3.47;2.30;;;;;;;16.49;63.39;97456.72;5032404;28;20567;-70
2022/10/23 02:15:39;;;;;;;4.97;2.33;;;;;;;16.50;63.44;97454.91;5040093;28;20413;-71
2022/10/23 02:18:33;;;;;;;5.33;2.10;;;;;;;16.50;63.32;97458.38;5025029;28;20430;-71
2022/10/23 02:21:28;;;;;;;6.17;2.20;;;;;;;16.51;63.27;97459.16;5050911;28;20516;-72
2022/10/23 02:24:00;;;;;;;3.83;1.97;;;;;;;16.46;63.04;97457.06;5036861;28;20469;-72
2022/10/23 02:26:41;;;;;;;12.93;2.03;;;;;;;16.48;63.64;97448.97;5039918;28;20487;-72
2022/10/23 02:29:16;;;;;;;6.80;2.00;;;;;;;16.50;63.40;97453.06;5036452;28;20507;-72
2022/10/23 02:31:41;;;;;;;4.40;2.43;;;;;;;16.49;63.42;97442.69;5042938;28;20417;-71
2022/10/23 02:34:07;;;;;;;2.10;1.73;;;;;;;16.50;63.54;97436.38;5042292;28;20491;-71
2022/10/23 02:36:32;;;;;;;5.03;1.90;;;;;;;16.52;63.65;97444.94;5049824;28;20179;-70
2022/10/23 02:38:58;;;;;;;7.37;2.53;;;;;;;16.56;63.38;97443.56;5049343;28;20600;-72
2022/10/23 02:41:41;;;;;;;8.17;2.27;;;;;;;16.59;63.09;97440.56;5053788;28;20274;-70
2022/10/23 02:44:13;;;;;;;3.97;2.23;;;;;;;16.54;63.27;97437.66;5046077;28;20804;-72
2022/10/23 02:46:44;;;;;;;6.50;2.10;;;;;;;16.47;63.44;97426.97;5043428;28;20409;-72
2022/10/23 02:49:19;;;;;;;4.03;2.20;;;;;;;16.53;63.41;97425.41;5050433;28;20445;-71
2022/10/23 02:52:05;;;;;;;6.50;2.07;;;;;;;16.55;63.50;97418.13;5044512;28;20433;-72
2022/10/23 02:54:51;;;;;;;4.07;2.00;;;;;;;16.54;63.48;97417.31;5050404;28;20449;-71
2022/10/23 02:57:59;;;;;;;3.93;2.37;;;;;;;16.40;63.02;97412.88;5048639;28;20436;-72
2022/10/23 03:00:26;;;;;;;10.83;2.60;;;;;;;16.32;62.88;97415.63;5027390;28;20800;-72
2022/10/23 03:03:01;;;;;;;6.40;2.57;;;;;;;16.27;62.95;97413.50;5011952;28;20588;-72
2022/10/23 03:05:30;;;;;;;3.00;2.30;;;;;;;16.27;63.05;97406.41;5040150;28;20484;-72
2022/10/23 03:07:56;;;;;;;7.13;2.60;;;;;;;16.32;63.11;97416.41;5048390;28;21166;-71
2022/10/23 03:10:21;;;;;;;3.47;2.20;;;;;;;16.34;63.40;97414.41;5042141;28;20532;-72
2022/10/23 03:12:47;;;;;;;3.03;2.20;;;;;;;16.36;63.38;97409.78;5049284;28;20174;-72
2022/10/23 03:15:14;;;;;;;7.40;2.17;;;;;;;16.28;63.98;97420.44;5050222;28;20179;-72
2022/10/23 03:17:39;;;;;;;3.33;2.10;;;;;;;16.31;63.88;97411.34;5049591;28;20429;-72
2022/10/23 03:20:06;;;;;;;3.13;2.50;;;;;;;16.32;64.28;97418.25;5048363;28;20449;-72
2022/10/23 03:22:31;;;;;;;4.57;2.07;;;;;;;16.29;63.94;97414.13;5049717;28;20183;-72
2022/10/23 03:24:57;;;;;;;4.07;2.40;;;;;;;16.29;64.06;97411.50;5050329;28;20518;-73
2022/10/23 03:27:22;;;;;;;4.80;2.37;;;;;;;16.30;63.66;97410.50;5049329;28;20181;-73
2022/10/23 03:29:47;;;;;;;4.80;2.10;;;;;;;16.21;63.96;97406.31;5050055;28;20233;-73
2022/10/23 03:32:13;;;;;;;5.20;2.17;;;;;;;16.22;64.10;97408.75;5049460;28;20229;-72
2022/10/23 03:34:38;;;;;;;5.60;2.33;;;;;;;16.08;64.30;97404.28;5049855;28;20187;-72
2022/10/23 03:37:04;;;;;;;4.90;2.70;;;;;;;16.00;64.56;97401.75;5042806;28;20198;-72
2022/10/23 03:39:30;;;;;;;6.77;2.60;;;;;;;16.00;65.02;97402.59;5050094;28;20206;-71
2022/10/23 03:41:55;;;;;;;6.70;2.93;;;;;;;16.03;64.87;97393.47;5032714;28;20188;-73
2022/10/23 03:44:21;;;;;;;5.60;2.40;;;;;;;16.05;64.60;97392.28;5040730;28;20207;-71
2022/10/23 03:46:46;;;;;;;15.37;3.37;;;;;;;16.09;64.62;97393.56;5064891;28;20629;-72
2022/10/23 03:49:12;;;;;;;10.77;2.60;;;;;;;16.13;64.47;97394.81;5055854;28;20289;-71
2022/10/23 03:51:40;;;;;;;2.73;2.53;;;;;;;16.12;64.18;97392.38;5059120;28;20182;-73
2022/10/23 03:54:06;;;;;;;4.20;2.73;;;;;;;16.13;64.15;97378.94;5064284;28;20193;-71
2022/10/23 03:56:32;;;;;;;6.30;2.80;;;;;;;16.18;64.03;97385.53;5066516;28;20448;-71
2022/10/23 03:58:57;;;;;;;5.80;2.40;;;;;;;16.22;63.93;97386.81;5053756;28;20438;-73
2022/10/23 04:01:23;;;;;;;6.07;2.13;;;;;;;16.13;64.18;97394.81;5060462;28;20709;-72
2022/10/23 04:03:48;;;;;;;4.00;2.27;;;;;;;16.15;64.01;97385.88;5070335;28;20229;-72
2022/10/23 04:06:13;;;;;;;3.03;2.27;;;;;;;16.16;63.63;97387.53;5065293;28;20675;-72
2022/10/23 04:08:42;;;;;;;4.17;2.30;;;;;;;16.13;63.53;97391.38;5059246;28;20266;-73
2022/10/23 04:11:07;;;;;;;3.30;2.23;;;;;;;16.13;63.23;97386.88;5068045;28;20238;-73
2022/10/23 04:13:32;;;;;;;5.33;2.13;;;;;;;16.08;63.43;97393.72;5061030;28;20448;-73
2022/10/23 04:15:58;;;;;;;2.33;2.13;;;;;;;16.08;63.24;97389.28;5063115;28;20266;-73
2022/10/23 04:18:23;;;;;;;6.33;2.10;;;;;;;16.08;63.49;97391.91;5062861;28;20273;-72
2022/10/23 04:20:49;;;;;;;2.90;2.00;;;;;;;16.05;63.62;97397.56;5067652;28;20238;-72
2022/10/23 04:23:15;;;;;;;12.10;2.60;;;;;;;16.06;63.61;97399.19;5070013;28;20186;-71
2022/10/23 04:25:41;;;;;;;9.67;2.13;;;;;;;16.04;63.22;97397.75;5054293;28;20487;-73
2022/10/23 04:28:06;;;;;;;4.53;2.10;;;;;;;15.99;63.23;97400.94;5065879;28;20433;-72
2022/10/23 04:30:32;;;;;;;3.33;2.20;;;;;;;15.96;63.37;97401.31;5065669;28;20270;-72
2022/10/23 04:32:57;;;;;;;8.03;2.13;;;;;;;15.96;63.38;97409.22;5057959;28;20179;-72
2022/10/23 04:35:23;;;;;;;8.40;2.70;;;;;;;15.95;63.58;97394.38;5059188;28;20325;-72
2022/10/23 04:37:48;;;;;;;5.97;2.17;;;;;;;15.98;63.56;97399.31;5061351;28;20722;-71
2022/10/23 04:40:14;;;;;;;4.50;2.37;;;;;;;16.00;63.96;97396.47;5057819;28;20255;-72
2022/10/23 04:42:39;;;;;;;3.50;2.80;;;;;;;15.96;64.14;97388.09;5051598;28;20656;-72
2022/10/23 04:45:05;;;;;;;3.67;2.03;;;;;;;16.02;64.18;97395.28;5057491;28;20292;-71
2022/10/23 04:47:30;;;;;;;6.87;2.47;;;;;;;16.03;64.61;97381.06;5066291;28;20182;-73
2022/10/23 04:49:56;;;;;;;2.90;2.40;;;;;;;16.03;64.64;97388.19;5067864;28;20289;-72
2022/10/23 04:52:21;;;;;;;8.13;2.90;;;;;;;16.01;64.37;97380.41;5064493;28;20269;-72
2022/10/23 04:54:47;;;;;;;4.70;2.37;;;;;;;15.99;64.08;97395.66;5058011;28;20178;-74
2022/10/23 04:57:12;;;;;;;2.43;2.23;;;;;;;16.00;63.74;97397.31;5069985;28;20182;-72
2022/10/23 04:59:38;;;;;;;2.20;2.00;;;;;;;16.00;63.77;97393.81;5062162;28;20207;-72
2022/10/23 05:02:04;;;;;;;2.57;2.00;;;;;;;15.94;63.92;97396.19;5067664;28;20239;-71
2022/10/23 05:04:29;;;;;;;4.17;2.33;;;;;;;15.95;63.97;97395.19;5057228;28;20527;-71
2022/10/23 05:06:55;;;;;;;3.50;2.43;;;;;;;15.97;64.27;97384.44;5065024;28;20178;-72
2022/10/23 05:09:21;;;;;;;5.63;2.40;;;;;;;15.96;64.39;97388.09;5052927;28;20288;-72
2022/10/23 05:11:47;;;;;;;5.53;2.17;;;;;;;16.00;64.38;97378.81;5067647;28;20187;-71
2022/10/23 05:14:12;;;;;;;3.43;2.23;;;;;;;16.02;64.51;97381.25;5056219;28;20194;-72
2022/10/23 05:16:43;;;;;;;4.10;2.23;;;;;;;15.94;64.71;97384.81;5070473;28;20198;-72
2022/10/23 05:19:09;;;;;;;2.67;2.23;;;;;;;16.00;64.48;97378.81;5060509;28;20612;-72
2022/10/23 05:21:35;;;;;;;3.20;2.40;;;;;;;15.99;64.51;97377.16;5059549;28;20482;-71
2022/10/23 05:24:01;;;;;;;6.10;2.50;;;;;;;15.97;64.41;97374.69;5064112;28;20459;-72
2022/10/23 05:26:28;;;;;;;8.87;3.97;;;;;;;15.97;64.35;97376.50;5062892;28;20504;-71
2022/10/23 05:28:53;;;;;;;4.10;2.70;;;;;;;15.94;64.50;97379.53;5066845;28;20183;-74
2022/10/23 05:31:21;;;;;;;9.03;3.27;;;;;;;15.95;64.28;97375.88;5057452;28;20947;-73
2022/10/23 05:33:46;;;;;;;3.07;2.70;;;;;;;15.98;64.04;97375.50;5069637;28;20182;-72
2022/10/23 05:36:13;;;;;;;6.50;2.63;;;;;;;15.94;64.23;97366.31;5061750;28;20448;-72
2022/10/23 05:38:38;;;;;;;3.70;2.23;;;;;;;15.91;64.54;97359.56;5066504;28;20192;-72
2022/10/23 05:41:04;;;;;;;2.67;2.30;;;;;;;15.92;64.53;97373.59;5049926;28;20538;-71
2022/10/23 05:43:30;;;;;;;3.80;2.33;;;;;;;15.93;64.37;97365.50;5042491;28;20207;-72
2022/10/23 05:45:56;;;;;;;8.47;3.80;;;;;;;15.89;64.35;97366.84;5050922;28;20236;-72
2022/10/23 05:48:22;;;;;;;2.50;2.30;;;;;;;15.92;64.66;97366.50;5050446;28;20441;-72
2022/10/23 05:50:47;;;;;;;5.67;2.43;;;;;;;15.91;64.85;97358.72;5053277;28;20807;-71
2022/10/23 05:53:13;;;;;;;5.47;2.73;;;;;;;15.88;64.79;97354.63;5063397;28;20189;-72
2022/10/23 05:55:39;;;;;;;3.80;2.27;;;;;;;15.89;64.94;97353.63;5071422;28;20189;-71
2022/10/23 05:58:05;;;;;;;7.03;2.90;;;;;;;15.87;64.94;97352.19;5062439;28;20657;-71
2022/10/23 06:00:30;;;;;;;5.07;2.47;;;;;;;15.90;64.90;97346.50;5064125;28;20205;-72
2022/10/23 06:02:58;;;;;;;4.03;2.67;;;;;;;15.81;64.92;97348.41;5066469;28;20190;-72
2022/10/23 06:05:24;;;;;;;7.30;2.70;;;;;;;15.82;64.61;97356.16;5063723;28;20229;-72
2022/10/23 06:07:49;;;;;;;3.33;2.80;;;;;;;15.76;64.64;97356.88;5067942;28;20428;-71
2022/10/23 06:10:15;;;;;;;4.10;2.10;;;;;;;15.74;65.02;97353.63;5049686;28;20246;-72
2022/10/23 06:12:40;;;;;;;4.10;3.07;;;;;;;15.77;65.04;97347.94;5066773;28;20257;-73
2022/10/23 06:15:06;;;;;;;8.63;2.57;;;;;;;15.78;64.97;97346.94;5061648;28;20175;-71
2022/10/23 06:17:32;;;;;;;4.47;2.80;;;;;;;15.77;65.05;97334.72;5066823;28;20242;-72
2022/10/23 06:20:01;;;;;;;3.60;2.73;;;;;;;15.81;65.20;97337.84;5050413;28;20671;-74
2022/10/23 06:22:27;;;;;;;6.40;2.90;;;;;;;15.87;64.94;97342.41;5067547;28;20285;-72
2022/10/23 06:24:53;;;;;;;4.90;2.57;;;;;;;15.93;64.99;97346.16;5065659;28;20832;-72
2022/10/23 06:27:18;;;;;;;8.40;2.77;;;;;;;15.97;64.75;97355.38;5060175;28;20437;-72
2022/10/23 06:29:44;;;;;;;3.40;2.40;;;;;;;15.95;64.90;97349.44;5057146;28;20202;-71
2022/10/23 06:32:09;;;;;;;3.00;2.50;;;;;;;15.99;65.01;97348.09;5062502;28;20269;-72
2022/10/23 06:34:34;;;;;;;4.10;2.47;;;;;;;16.01;65.01;97338.13;5063265;28;20269;-73
2022/10/23 06:37:00;;;;;;;4.40;2.50;;;;;;;16.07;64.64;97341.84;5060409;28;20186;-73
2022/10/23 06:39:25;;;;;;;3.50;2.13;;;;;;;16.11;64.59;97349.25;5067591;28;20202;-72
2022/10/23 06:41:51;;;;;;;2.50;1.90;;;;;;;16.12;64.38;97345.63;5062963;28;20261;-72
2022/10/23 06:44:16;;;;;;;2.23;1.93;;;;;;;16.07;64.86;97341.84;5054776;28;20290;-72
2022/10/23 06:46:45;;;;;;;2.70;2.30;;;;;;;16.11;65.02;97341.31;5065645;28;20265;-72
2022/10/23 06:49:12;;;;;;;6.50;2.70;;;;;;;16.17;65.21;97344.22;5050776;28;20263;-73
2022/10/23 06:51:38;;;;;;;6.70;3.10;;;;;;;16.19;65.05;97342.22;5048267;28;20429;-73
2022/10/23 06:54:03;;;;;;;3.30;2.20;;;;;;;16.20;65.19;97338.56;5058519;28;20955;-72
2022/10/23 06:56:29;;;;;;;5.33;1.83;;;;;;;16.25;64.83;97338.84;5048798;28;20719;-72
2022/10/23 06:58:55;;;;;;;4.60;2.00;;;;;;;16.23;64.79;97340.84;5057241;28;20293;-71
2022/10/23 07:01:21;;;;;;;2.67;2.20;;;;;;;16.25;64.80;97341.50;5049886;28;20237;-72
2022/10/23 07:03:47;;;;;;;4.67;2.37;;;;;;;16.30;64.75;97339.09;5060046;28;20457;-72
2022/10/23 07:06:13;;;;;;;4.33;2.00;;;;;;;16.37;64.72;97342.66;5050231;28;20752;-70
2022/10/23 07:08:39;;;;;;;5.57;2.60;;;;;;;16.47;64.84;97339.69;5038461;28;20934;-71
2022/10/23 07:11:07;;;;;;;2.17;1.97;;;;;;;16.57;64.86;97344.69;5059839;28;20456;-71
2022/10/23 07:13:34;;;;;;;3.73;2.40;;;;;;;16.65;64.70;97339.25;5063544;28;20183;-70
2022/10/23 07:16:09;;;;;;;3.40;2.33;;;;;;;16.73;64.57;97336.50;5065580;28;20425;-71
2022/10/23 07:18:34;;;;;;;3.37;2.70;;;;;;;16.80;64.61;97335.75;5064304;28;20424;-71
2022/10/23 07:21:00;;;;;;;3.67;2.13;;;;;;;16.83;64.40;97336.19;5048995;28;21009;-70
2022/10/23 07:23:25;;;;;;;2.93;2.03;;;;;;;16.91;64.21;97335.25;5067009;28;20255;-70
2022/10/23 07:25:51;;;;;;;5.97;3.00;;;;;;;16.85;64.09;97328.88;5059315;28;20175;-70
2022/10/23 07:28:16;;;;;;;4.80;2.73;;;;;;;16.83;64.08;97319.50;5066069;28;20194;-70
2022/10/23 07:30:41;;;;;;;3.33;2.33;;;;;;;16.96;63.97;97329.41;5064164;28;20203;-70
2022/10/23 07:33:07;;;;;;;5.43;2.40;;;;;;;17.01;63.66;97327.03;5070353;28;20824;-70
2022/10/23 07:35:32;;;;;;;3.50;2.27;;;;;;;17.10;63.57;97328.50;5068908;28;20194;-72
2022/10/23 07:37:59;;;;;;;6.73;2.30;;;;;;;17.11;63.33;97332.00;5068819;28;20186;-71
2022/10/23 07:40:24;;;;;;;4.90;2.67;;;;;;;17.23;63.35;97337.56;5070216;28;20214;-72
2022/10/23 07:42:49;;;;;;;5.33;2.47;;;;;;;17.34;63.15;97343.19;5063087;28;20432;-71
2022/10/23 07:45:15;;;;;;;2.50;2.30;;;;;;;17.41;63.01;97350.34;5057165;28;20297;-71
2022/10/23 07:47:40;;;;;;;4.97;2.80;;;;;;;17.50;62.81;97341.25;5065481;28;20187;-71
2022/10/23 07:50:06;;;;;;;6.17;2.40;;;;;;;17.63;62.63;97348.47;5060937;28;20234;-70
2022/10/23 07:52:34;;;;;;;6.23;2.70;;;;;;;17.76;62.55;97347.75;5050799;28;20182;-70
2022/10/23 07:55:00;;;;;;;3.03;2.50;;;;;;;17.89;62.42;97349.66;5070169;28;20773;-70
2022/10/23 07:57:25;;;;;;;11.83;2.53;;;;;;;18.04;62.33;97341.59;5070266;28;20417;-71
2022/10/23 07:59:50;;;;;;;3.10;2.47;;;;;;;18.20;62.34;97338.59;5062915;28;20800;-71
2022/10/23 08:02:16;;;;;;;7.27;2.40;;;;;;;18.39;62.23;97341.53;5070206;28;20209;-72
2022/10/23 08:04:41;;;;;;;5.63;2.00;;;;;;;18.50;61.61;97334.81;5053298;28;20670;-72
2022/10/23 08:07:07;;;;;;;6.20;5.57;;;;;;;18.69;61.11;97333.25;5068540;28;20186;-72
2022/10/23 08:09:33;;;;;;;15.30;9.70;;;;;;;18.84;60.78;97320.63;5054683;28;20213;-70
2022/10/23 08:11:59;;;;;;;7.93;4.70;;;;;;;19.17;60.54;97325.16;5066543;28;20183;-71
2022/10/23 08:14:25;;;;;;;17.27;3.90;;;;;;;19.49;59.53;97322.69;5065909;28;20427;-70
2022/10/23 08:16:50;;;;;;;4.63;3.33;;;;;;;19.71;58.54;97330.41;5069657;28;20471;-71
2022/10/23 08:19:16;;;;;;;5.87;3.57;;;;;;;20.02;57.07;97320.97;5062202;28;20211;-72
2022/10/23 08:21:41;;;;;;;3.83;2.53;;;;;;;20.39;56.89;97321.22;5059049;28;20178;-70
2022/10/23 08:24:12;;;;;;;2.80;2.53;;;;;;;20.78;55.67;97317.75;5063895;28;20781;-71
2022/10/23 08:26:37;;;;;;;5.13;2.07;;;;;;;21.14;54.32;97310.91;5057618;28;20178;-71
2022/10/23 08:29:02;;;;;;;5.73;2.70;;;;;;;21.40;53.30;97315.19;5066753;28;20479;-70
2022/10/23 08:31:28;;;;;;;4.40;2.33;;;;;;;21.62;52.52;97304.97;5065962;28;20269;-72
2022/10/23 08:33:53;;;;;;;5.00;2.20;;;;;;;21.79;52.62;97297.19;5064651;28;20271;-71
2022/10/23 08:36:21;;;;;;;2.83;2.63;;;;;;;21.82;52.31;97298.59;5064817;28;20925;-71
2022/10/23 08:38:47;;;;;;;10.07;1.73;;;;;;;21.62;51.31;97304.97;5071182;28;20558;-71
2022/10/23 08:41:30;;;;;;;5.73;1.47;;;;;;;21.49;51.50;97291.72;5048104;28;20453;-71
2022/10/23 08:44:04;;;;;;;4.10;2.67;;;;;;;21.50;52.14;97290.69;5058149;28;20211;-71
2022/10/23 08:46:33;;;;;;;2.93;1.73;;;;;;;21.46;51.50;97293.00;5069021;28;20425;-71
2022/10/23 08:49:07;;;;;;;2.97;1.43;;;;;;;21.36;51.27;97297.19;5064387;28;20448;-71
2022/10/23 08:51:40;;;;;;;2.60;2.10;;;;;;;21.29;52.37;97289.25;5061212;28;20429;-71
2022/10/23 08:54:15;;;;;;;3.43;1.70;;;;;;;21.26;51.10;97287.84;5066349;28;20421;-70
2022/10/23 08:56:41;;;;;;;4.23;1.90;;;;;;;21.31;51.43;97292.53;5061623;28;20452;-70
2022/10/23 08:59:44;;;;;;;3.80;1.40;;;;;;;21.57;51.36;97295.97;5067110;28;20436;-71
2022/10/23 09:02:16;;;;;;;4.87;1.67;;;;;;;21.92;51.02;97290.91;5064734;28;20412;-72
2022/10/23 09:04:44;;;;;;;7.03;1.47;;;;;;;22.28;50.09;97291.06;5064565;28;20556;-72
2022/10/23 09:07:34;;;;;;;2.33;1.50;;;;;;;22.70;49.86;97280.44;5067992;28;20432;-71
2022/10/23 09:10:21;;;;;;;1.50;1.40;;;;;;;22.97;47.71;97280.03;5052369;28;20452;-73
2022/10/23 09:12:52;;;;;;;1.20;1.10;;;;;;;23.33;46.93;97292.63;5056880;28;20427;-72
2022/10/23 09:15:23;;;;;;;2.33;1.43;;;;;;;23.50;44.96;97293.56;5063819;28;20417;-72
2022/10/23 09:17:56;;;;;;;3.30;1.40;;;;;;;23.78;44.74;97290.16;5066931;28;20432;-71
2022/10/23 09:20:28;;;;;;;1.20;1.10;;;;;;;23.96;43.54;97293.75;5055627;28;22108;-71
2022/10/23 09:23:00;;;;;;;1.73;1.00;;;;;;;24.26;41.30;97290.06;5069866;28;20534;-72
2022/10/23 09:25:33;;;;;;;2.30;0.93;;;;;;;24.61;40.66;97286.41;5063569;28;20507;-72
2022/10/23 09:28:00;;;;;;;2.17;0.90;;;;;;;24.78;39.13;97285.66;5063591;28;20432;-71
2022/10/23 09:30:28;;;;;;;3.13;0.90;;;;;;;25.06;39.04;97287.44;5065516;28;20472;-70
2022/10/23 09:32:54;;;;;;;2.70;1.10;;;;;;;25.38;38.88;97284.19;5066321;28;20943;-70
2022/10/23 09:35:21;;;;;;;1.53;0.93;;;;;;;25.54;38.54;97276.34;5066990;28;20437;-71
2022/10/23 09:37:47;;;;;;;2.80;1.53;;;;;;;25.85;40.03;97266.84;5059317;28;20179;-71
2022/10/23 09:40:21;;;;;;;3.80;1.23;;;;;;;25.94;38.89;97263.72;5069515;28;20816;-71
2022/10/23 09:42:51;;;;;;;5.10;1.13;;;;;;;26.11;37.81;97259.09;5060398;28;20924;-72
2022/10/23 09:45:31;;;;;;;2.33;1.27;;;;;;;26.26;38.45;97254.97;5061905;28;20476;-71
2022/10/23 09:48:16;;;;;;;1.83;1.03;;;;;;;26.27;37.73;97252.06;5061115;28;20520;-71
2022/10/23 09:50:57;;;;;;;4.10;1.00;;;;;;;26.20;38.36;97252.25;5051474;28;20819;-71
2022/10/23 09:53:30;;;;;;;3.10;0.80;;;;;;;26.34;38.37;97257.19;5064172;28;20433;-71
2022/10/23 09:55:59;;;;;;;1.20;1.00;;;;;;;26.58;38.06;97255.03;5063476;28;20425;-71
2022/10/23 09:58:31;;;;;;;1.67;0.90;;;;;;;26.81;38.56;97255.78;5064081;28;20453;-72
2022/10/23 10:00:57;;;;;;;4.13;0.90;;;;;;;26.99;37.14;97251.88;5061821;28;20493;-71
2022/10/23 10:03:23;;;;;;;4.23;0.80;;;;;;;26.46;36.70;97251.69;5066236;28;20952;-72
2022/10/23 10:06:00;;;;;;;3.03;1.03;;;;;;;26.53;38.24;97261.16;5064584;28;20269;-71
2022/10/23 10:08:43;;;;;;;3.40;0.93;;;;;;;26.59;37.89;97264.69;5061114;28;20773;-72
2022/10/23 10:11:26;;;;;;;4.80;1.30;;;;;;;26.72;37.00;97268.84;5063954;28;20451;-71
2022/10/23 10:13:57;;;;;;;1.00;0.90;;;;;;;26.72;36.77;97274.22;5060580;28;20512;-71
2022/10/23 10:16:43;;;;;;;1.30;1.00;;;;;;;26.83;37.99;97264.41;5064862;28;20458;-71
2022/10/23 10:19:39;;;;;;;2.47;0.93;;;;;;;26.58;36.59;97264.97;5058713;28;20437;-71
2022/10/23 10:22:11;;;;;;;3.00;1.00;;;;;;;26.48;37.27;97260.31;5061985;28;20422;-71
2022/10/23 10:25:16;;;;;;;2.73;1.00;;;;;;;26.47;36.80;97259.47;5065054;28;20486;-71
2022/10/23 10:27:57;;;;;;;2.63;1.10;;;;;;;26.32;36.62;97243.22;5050993;28;20428;-72
2022/10/23 10:30:23;;;;;;;2.73;0.93;;;;;;;26.60;37.69;97244.00;5064932;28;20453;-71
2022/10/23 10:33:05;;;;;;;2.07;1.10;;;;;;;26.74;37.39;97253.28;5046825;28;20817;-72
2022/10/23 10:35:43;;;;;;;2.83;1.20;;;;;;;26.74;36.99;97239.84;5048496;28;20527;-72
2022/10/23 10:38:39;;;;;;;1.57;0.90;;;;;;;26.89;36.89;97238.38;5066953;28;20519;-71
2022/10/23 10:41:22;;;;;;;2.40;0.90;;;;;;;26.94;36.18;97230.34;5058839;28;20499;-73
2022/10/23 10:44:06;;;;;;;2.30;0.90;;;;;;;26.77;36.06;97207.06;5057419;28;20519;-72
2022/10/23 10:46:53;;;;;;;1.40;0.77;;;;;;;26.48;36.66;97210.06;5056670;28;20443;-72
2022/10/23 10:49:26;;;;;;;1.87;1.10;;;;;;;26.18;36.85;97216.78;5058704;28;20423;-72
2022/10/23 10:52:07;;;;;;;3.73;0.83;;;;;;;25.98;37.03;97222.72;5060621;28;20444;-71
2022/10/23 10:54:38;;;;;;;4.77;1.03;;;;;;;25.68;37.25;97218.59;5063325;28;20924;-72
2022/10/23 10:57:12;;;;;;;1.67;0.80;;;;;;;25.63;38.04;97225.78;5067258;28;20493;-72
2022/10/23 10:59:41;;;;;;;2.07;0.90;;;;;;;25.58;38.23;97230.00;5054607;28;20441;-71
2022/10/23 11:02:12;;;;;;;1.50;0.90;;;;;;;25.55;38.32;97222.47;5063858;28;20440;-71
2022/10/23 11:04:57;;;;;;;1.13;0.90;;;;;;;25.50;38.51;97222.41;5062639;28;20537;-71
2022/10/23 11:07:28;;;;;;;1.47;0.80;;;;;;;25.54;38.86;97228.06;5067701;28;20455;-71
2022/10/23 11:09:57;;;;;;;6.07;0.80;;;;;;;25.52;38.81;97214.13;5049726;28;20445;-72
2022/10/23 11:12:25;;;;;;;2.20;1.00;;;;;;;25.43;39.53;97203.78;5063871;28;20464;-72
2022/10/23 11:14:51;;;;;;;3.00;1.07;;;;;;;25.41;39.77;97199.75;5063551;28;20433;-71
2022/10/23 11:17:20;;;;;;;2.30;1.00;;;;;;;25.29;40.00;97197.97;5064526;28;20482;-71
2022/10/23 11:20:05;;;;;;;1.50;0.90;;;;;;;25.25;39.55;97204.06;5056981;28;20198;-72
2022/10/23 11:22:36;;;;;;;1.30;0.90;;;;;;;25.15;39.95;97194.00;5051779;28;20508;-71
2022/10/23 11:25:21;;;;;;;2.00;1.10;;;;;;;24.94;40.93;97187.53;5042199;28;20493;-72
2022/10/23 11:28:20;;;;;;;2.20;1.13;;;;;;;24.81;40.77;97176.09;5049774;28;20474;-71
2022/10/23 11:31:08;;;;;;;1.60;1.20;;;;;;;24.78;40.79;97173.91;5061810;28;20440;-72
2022/10/23 11:33:53;;;;;;;1.77;1.20;;;;;;;24.66;40.85;97163.25;5056019;28;20437;-71
2022/10/23 11:36:47;;;;;;;1.87;1.20;;;;;;;24.64;41.35;97168.06;5059777;28;20854;-71
2022/10/23 11:39:23;;;;;;;3.10;1.30;;;;;;;24.53;40.91;97168.94;5065522;28;20932;-71
2022/10/23 11:41:55;;;;;;;7.20;1.10;;;;;;;24.52;41.05;97167.31;5062823;28;20464;-72
2022/10/23 11:44:40;;;;;;;3.17;1.03;;;;;;;24.54;41.57;97157.97;5044363;28;20495;-71
2022/10/23 11:47:24;;;;;;;6.17;1.10;;;;;;;24.64;41.65;97154.66;5063468;28;20524;-70
2022/10/23 11:49:50;;;;;;;1.30;1.20;;;;;;;24.65;41.32;97145.56;5051711;28;20543;-71